Caxias do Sul, Brazil
Current Conditions -  °F | °C
As of 6:00 AM on Thursday 18 Dec 2014 (Local Time) from SBCO Reporting Station
Haze Haze  
Wind Chill: 72°   Ceiling: 5000
Heat Index: 72°   Visibility: 2.5mi
Dew Point: 72°   Wind: 2mph
Humidity: 100%   Direction: 320°NW
Pressure: 29.83"   Gusts: NA
Location:  29.18°S, 51.17°W
Report Text: SBCO 180800Z 32002KT 4000 BR SCT004 BKN050 22/22 Q1010
Loading
Personal Weather Stations






























Interactive Weather Map New forecast layout! Learn more

10-Day Weather Forecast

Advertisements
Track Severe Weather on mobile